Gilman City, Missouri
Current Conditions -  °F | °C
As of 3:53 AM on Thursday 27 Nov 2014 (Local Time) from KLWD Reporting Station
Overcast Overcast  
Wind Chill:   Ceiling: 1200
Heat Index: 22°   Visibility: 10mi
Dew Point: 18°   Wind: 15mph
Humidity: 85%   Direction: 300°WNW
Pressure: 30.44"   Gusts: NA
Location:  40.14°N, 93.87°W
Report Text: KLWD 270953Z AUTO 30013KT 10SM OVC012 M06/M08 A3044 RMK AO2 SLP325 T10561078
Loading
Personal Weather Stations






























Interactive Weather Map New forecast layout! Learn more

10-Day Weather Forecast

Advertisements
Track Severe Weather on mobile